This is the latest recevied weather packets stored in our database for station/object K7YVO. If no packets are shown the sender has not sent any weather packets the latest 10 day(s).
| Time | Temp. | Humidity | Pressure | Rain* | Wind** | Luminosity | Snow |
|---|---|---|---|---|---|---|---|
| 1777576557 | 26.11° C | 31% | 1019.5 hPa | 0 mm | - | 780 W/m² | - |
| 1777576254 | 26.11° C | 31% | 1019.4 hPa | 0 mm | - | 749 W/m² | - |
| 1777575950 | 25.56° C | 32% | 1019.5 hPa | 0 mm | - | 700 W/m² | - |
| 1777575646 | 23.89° C | 41% | 1019.6 hPa | 0 mm | - | 768 W/m² | - |
| 1777575342 | 23.89° C | 43% | 1019.7 hPa | 0 mm | - | 716 W/m² | - |
| 1777575038 | 22.78° C | 45% | 1019.7 hPa | 0 mm | - | 724 W/m² | - |
| 1777574734 | 22.22° C | 46% | 1019.8 hPa | 0 mm | - | 707 W/m² | - |
| 1777574432 | 21.11° C | 47% | 1019.8 hPa | 0 mm | - | 643 W/m² | - |
| 1777574127 | 20.56° C | 48% | 1019.9 hPa | 0 mm | - | 171 W/m² | - |
| 1777573823 | 20.56° C | 50% | 1019.9 hPa | 0 mm | - | 165 W/m² | - |
| 1777573518 | 20.56° C | 51% | 1020.1 hPa | 0 mm | - | 253 W/m² | - |
| 1777573215 | 20.56° C | 51% | 1020.2 hPa | 0 mm | - | 293 W/m² | - |
| 1777572911 | 21.11° C | 51% | 1020.1 hPa | 0 mm | - | 358 W/m² | - |
| 1777572607 | 21.11° C | 51% | 1020.1 hPa | 0 mm | - | 340 W/m² | - |
| 1777572307 | 21.11° C | 45% | 1020.3 hPa | 0 mm | - | 311 W/m² | - |
| 1777572003 | 21.11° C | 46% | 1020.2 hPa | 0 mm | - | 261 W/m² | - |
| 1777571697 | 21.11° C | 45% | 1020.2 hPa | 0 mm | - | 268 W/m² | - |
| 1777571396 | 21.11° C | 45% | 1020.1 hPa | 0 mm | - | 277 W/m² | - |
| 1777571091 | 21.11° C | 46% | 1020.3 hPa | 0 mm | - | 261 W/m² | - |
| 1777570787 | 21.11° C | 47% | 1020.3 hPa | 0 mm | - | 294 W/m² | - |
| 1777570483 | 20.56° C | 46% | 1020.3 hPa | 0 mm | - | 342 W/m² | - |
| 1777570179 | 20.56° C | 48% | 1020.4 hPa | 0 mm | - | 545 W/m² | - |
| 1777569876 | 20° C | 47% | 1020.3 hPa | 0 mm | - | 479 W/m² | - |
| 1777569572 | 20° C | 48% | 1020.4 hPa | 0 mm | - | 323 W/m² | - |
| 1777569268 | 19.44° C | 48% | 1020.5 hPa | 0 mm | - | 210 W/m² | - |
* Rain latest hour (hover to see other rain measurements)
** Current wind speed in m/s (hover to see current wind gust speed)